Manitowoc, Wisconsin
Current Conditions -  °F | °C
As of 9:56 AM on Friday 24 Oct 2014 (Local Time) from KMTW Reporting Station
Overcast Overcast  
Wind Chill: 50°   Ceiling: 700
Heat Index: 50°   Visibility: 8mi
Dew Point: 48°   Wind: 5mph
Humidity: 93%   Direction: 280°W
Pressure: 30.04"   Gusts: NA
Location:  44.11°N, 87.66°W
Report Text: KMTW 241456Z AUTO 28004KT 8SM OVC007 10/09 A3004 RMK AO2 SLP198 T01000089 51003
Loading
Personal Weather Stations






























Interactive Weather Map
Tropical Storm Tracking
New forecast layout! Learn more

10-Day Weather Forecast

Advertisements
Track Severe Weather on mobile